Terminal Aerodrome Forecast
Issued by NWS

Home | Current Version | Previous Version | Text Only | Print | Product List | Glossary On
Versions: 1 2 3 4 5 6 7 8 9 10 11 12 13 14 15 16 17 18
000
FTUS41 KBGM 240913 AAA
TAFITH
TAF AMD
KITH 240913Z 2409/2506 VRB03KT P6SM BKN150
      TEMPO 2410/2413 5SM -SHRA OVC028
     FM241500 18012G22KT P6SM BKN035
     FM242100 17010G18KT P6SM SCT070
     FM250200 17011KT P6SM BKN035=

USA.gov is the U.S. government's official web portal to all federal, state and local government web resources and services.